Time;durP1;ratioP1;P1;durP2;ratioP2;P2;SDS_P1;SDS_P2;PMS_P1;PMS_P2;Temp;Humidity;BMP_temperature;BMP_pressure;BME280_temperature;BME280_humidity;BME280_pressure;Samples;Min_cycle;Max_cycle;Signal;HPM_P1;HPM_P2
2021/11/05 00:01:53;;;;;;;17.30;10.02;;;;;;;9.83;64.62;98830.22;5114485;27;20118;-52
2021/11/05 00:04:19;;;;;;;15.18;10.20;;;;;;;9.79;64.54;98827.97;5114456;27;20116;-52
2021/11/05 00:06:45;;;;;;;17.48;11.68;;;;;;;9.67;64.39;98829.50;5132954;27;20015;-52
2021/11/05 00:09:10;;;;;;;15.98;10.40;;;;;;;9.56;64.59;98837.91;5132468;27;20045;-52
2021/11/05 00:11:36;;;;;;;14.85;9.80;;;;;;;9.49;65.00;98834.41;5132843;27;20122;-52
2021/11/05 00:14:02;;;;;;;14.07;11.25;;;;;;;9.44;65.28;98837.59;5132900;27;20015;-52
2021/11/05 00:16:28;;;;;;;13.35;10.68;;;;;;;9.45;65.16;98833.16;5132892;27;20484;-52
2021/11/05 00:18:53;;;;;;;16.45;10.55;;;;;;;9.49;65.61;98842.25;5132852;27;20030;-51
2021/11/05 00:21:19;;;;;;;12.57;9.05;;;;;;;9.65;65.31;98841.19;5132512;27;20392;-52
2021/11/05 00:23:44;;;;;;;15.35;8.73;;;;;;;9.89;65.03;98839.94;5132824;27;20585;-52
2021/11/05 00:26:10;;;;;;;15.88;9.98;;;;;;;10.10;64.77;98845.13;5132745;28;20096;-51
2021/11/05 00:28:36;;;;;;;18.27;11.68;;;;;;;10.15;63.80;98845.31;5132744;28;20030;-52
2021/11/05 00:31:02;;;;;;;18.15;10.65;;;;;;;10.07;64.19;98840.25;5132717;28;20031;-52
2021/11/05 00:33:27;;;;;;;13.73;10.13;;;;;;;10.19;64.17;98843.94;5132711;28;20038;-52
2021/11/05 00:35:53;;;;;;;12.10;8.32;;;;;;;10.33;63.89;98842.22;5132623;28;20076;-52
2021/11/05 00:38:19;;;;;;;18.50;14.60;;;;;;;10.42;63.70;98837.59;5132561;28;20024;-51
2021/11/05 00:40:44;;;;;;;21.75;17.15;;;;;;;10.50;63.41;98837.47;5132584;28;20102;-52
2021/11/05 00:43:10;;;;;;;31.80;22.42;;;;;;;10.43;63.07;98841.88;5132530;28;20022;-52
2021/11/05 00:45:36;;;;;;;19.20;16.77;;;;;;;10.32;62.96;98843.25;5132506;28;20031;-52
2021/11/05 00:48:02;;;;;;;16.45;11.02;;;;;;;10.16;63.08;98841.72;5132515;28;20027;-52
2021/11/05 00:50:27;;;;;;;15.25;10.65;;;;;;;9.94;63.48;98846.22;5132538;28;20023;-51
2021/11/05 00:52:54;;;;;;;18.02;13.68;;;;;;;9.79;63.84;98853.38;5132533;28;20015;-52
2021/11/05 00:55:19;;;;;;;15.55;11.68;;;;;;;9.63;64.04;98849.22;5132436;28;20015;-52
2021/11/05 00:57:45;;;;;;;17.40;13.10;;;;;;;9.51;64.65;98838.44;5132814;28;20545;-51
2021/11/05 01:00:17;;;;;;;16.15;13.43;;;;;;;9.48;65.15;98844.06;5132409;28;20031;-52
2021/11/05 01:02:44;;;;;;;17.67;12.18;;;;;;;9.45;64.96;98841.00;5113866;28;20138;-52
2021/11/05 01:05:12;;;;;;;17.30;15.52;;;;;;;9.35;65.11;98839.50;5132389;28;20120;-52
2021/11/05 01:07:39;;;;;;;15.88;14.25;;;;;;;9.28;65.40;98849.13;5113635;28;20039;-52
2021/11/05 01:10:05;;;;;;;17.40;15.45;;;;;;;9.26;65.42;98851.13;5132354;28;20023;-52
2021/11/05 01:12:30;;;;;;;20.60;17.77;;;;;;;9.29;65.87;98853.38;5132251;28;20031;-52
2021/11/05 01:14:56;;;;;;;18.48;16.50;;;;;;;9.24;65.75;98847.91;5132306;28;20102;-52
2021/11/05 01:17:22;;;;;;;19.33;14.75;;;;;;;9.26;65.86;98850.34;5113785;28;20114;-52
2021/11/05 01:19:48;;;;;;;14.23;12.18;;;;;;;9.31;66.16;98846.13;5132197;28;20023;-52
2021/11/05 01:22:14;;;;;;;16.23;12.23;;;;;;;9.52;65.98;98849.75;5113687;28;20024;-52
2021/11/05 01:24:39;;;;;;;26.20;20.10;;;;;;;9.65;65.52;98847.22;5132190;28;20020;-52
2021/11/05 01:27:05;;;;;;;22.42;12.18;;;;;;;9.74;65.62;98847.91;5132188;28;20019;-52
2021/11/05 01:29:31;;;;;;;13.35;11.98;;;;;;;9.96;65.39;98843.38;5132132;28;20030;-52
2021/11/05 01:31:57;;;;;;;15.23;12.02;;;;;;;10.11;64.96;98853.78;5132135;28;20023;-52
2021/11/05 01:34:23;;;;;;;18.63;12.48;;;;;;;10.06;64.45;98849.13;5134185;27;20075;-52
2021/11/05 01:36:49;;;;;;;21.10;13.55;;;;;;;9.76;64.88;98854.56;5135709;27;20058;-52
2021/11/05 01:39:16;;;;;;;18.40;11.75;;;;;;;9.52;65.29;98849.75;5135767;27;20042;-52
2021/11/05 01:41:42;;;;;;;16.45;11.90;;;;;;;9.48;66.05;98848.50;5135621;27;20476;-52
2021/11/05 01:44:08;;;;;;;13.82;11.52;;;;;;;9.33;65.77;98853.81;5117163;27;20396;-52
2021/11/05 01:46:41;;;;;;;13.52;11.13;;;;;;;9.09;66.31;98849.75;5117119;27;20023;-52
2021/11/05 01:49:08;;;;;;;15.77;12.70;;;;;;;8.86;66.73;98850.72;5135556;27;20099;-52
2021/11/05 01:51:36;;;;;;;16.77;12.20;;;;;;;8.71;67.05;98847.34;5135425;27;20019;-52
2021/11/05 01:54:06;;;;;;;15.80;12.13;;;;;;;8.56;67.45;98855.22;5135440;27;20019;-52
2021/11/05 01:56:32;;;;;;;17.48;12.10;;;;;;;8.40;67.55;98856.19;5116906;27;20088;-52
2021/11/05 01:58:58;;;;;;;13.60;11.88;;;;;;;8.18;68.36;98853.50;5135387;27;20056;-52
2021/11/05 02:01:24;;;;;;;18.27;15.02;;;;;;;7.90;69.72;98858.53;5135199;27;20019;-52
2021/11/05 02:03:50;;;;;;;19.45;15.35;;;;;;;7.70;70.35;98855.63;5135269;27;20019;-52
2021/11/05 02:06:20;;;;;;;19.98;16.00;;;;;;;7.78;71.41;98852.94;5135232;27;20037;-52
2021/11/05 02:08:49;;;;;;;25.83;23.15;;;;;;;7.78;70.71;98852.13;5135024;27;20039;-52
2021/11/05 02:11:15;;;;;;;22.73;18.15;;;;;;;7.63;70.75;98867.78;5135105;27;20027;-51
2021/11/05 02:13:44;;;;;;;41.42;29.17;;;;;;;7.46;71.47;98859.25;5135055;27;20098;-52
2021/11/05 02:16:10;;;;;;;75.50;68.25;;;;;;;7.49;71.95;98858.91;5135014;27;20020;-52
2021/11/05 02:18:36;;;;;;;65.90;59.58;;;;;;;7.65;71.97;98860.59;5134966;27;20502;-51
2021/11/05 02:21:03;;;;;;;20.05;17.45;;;;;;;7.66;71.05;98858.78;5134913;27;20030;-51
2021/11/05 02:23:28;;;;;;;55.72;48.95;;;;;;;7.48;70.89;98866.91;5134865;27;20023;-51
2021/11/05 02:25:54;;;;;;;40.65;36.05;;;;;;;7.31;71.74;98867.06;5134816;27;20022;-52
2021/11/05 02:28:21;;;;;;;38.85;34.78;;;;;;;7.19;71.61;98868.44;5134810;27;20019;-52
2021/11/05 02:30:50;;;;;;;34.67;22.95;;;;;;;7.12;72.26;98870.94;5116572;27;20023;-51
2021/11/05 02:33:16;;;;;;;170.30;152.75;;;;;;;7.10;72.77;98877.31;5134657;27;20027;-52
2021/11/05 02:35:42;;;;;;;37.55;33.28;;;;;;;7.34;72.93;98869.28;5134575;27;20145;-51
2021/11/05 02:38:08;;;;;;;33.10;27.38;;;;;;;7.41;72.20;98866.81;5134644;27;20437;-52
2021/11/05 02:40:33;;;;;;;89.35;78.43;;;;;;;7.36;71.76;98867.34;5134540;27;20019;-52
2021/11/05 02:42:59;;;;;;;101.10;90.60;;;;;;;7.29;72.15;98866.41;5115910;27;20542;-51
2021/11/05 02:45:25;;;;;;;231.27;208.18;;;;;;;7.19;72.71;98861.41;5134304;27;20058;-51
2021/11/05 02:47:51;;;;;;;338.88;303.48;;;;;;;7.31;73.65;98866.25;5134451;27;20110;-52
2021/11/05 02:50:18;;;;;;;58.55;50.05;;;;;;;7.69;73.27;98869.69;5115832;27;20030;-52
2021/11/05 02:52:45;;;;;;;114.55;99.38;;;;;;;7.88;71.94;98870.97;5134346;27;20030;-52
2021/11/05 02:55:11;;;;;;;111.05;100.32;;;;;;;7.98;72.60;98875.94;5134226;27;20019;-52
2021/11/05 02:57:38;;;;;;;45.28;40.45;;;;;;;8.09;71.31;98883.34;5134203;27;20498;-52
2021/11/05 03:00:06;;;;;;;36.90;28.52;;;;;;;7.90;71.32;98882.06;5134152;27;20030;-52
2021/11/05 03:02:32;;;;;;;147.35;132.98;;;;;;;7.91;72.01;98885.50;5134029;27;20023;-52
2021/11/05 03:04:57;;;;;;;47.97;40.42;;;;;;;8.19;71.45;98881.28;5134069;27;20024;-52
2021/11/05 03:07:23;;;;;;;87.18;78.65;;;;;;;8.35;70.35;98884.69;5111862;28;20084;-51
2021/11/05 03:09:49;;;;;;;48.70;43.72;;;;;;;8.50;70.00;98879.50;5113514;28;20019;-52
2021/11/05 03:12:16;;;;;;;25.60;19.95;;;;;;;8.58;69.78;98887.25;5113390;28;20109;-52
2021/11/05 03:14:41;;;;;;;88.60;80.07;;;;;;;8.63;69.59;98878.84;5113334;28;20019;-52
2021/11/05 03:17:07;;;;;;;52.92;46.45;;;;;;;8.77;68.84;98885.84;5113361;27;20388;-51
2021/11/05 03:19:34;;;;;;;130.35;117.50;;;;;;;8.73;68.17;98889.81;5113241;28;20028;-52
2021/11/05 03:22:00;;;;;;;81.13;72.22;;;;;;;8.66;67.85;98883.72;5113123;28;20034;-52
2021/11/05 03:24:25;;;;;;;183.00;52.03;;;;;;;8.54;67.85;98886.00;5113189;28;20400;-51
2021/11/05 03:26:51;;;;;;;39.92;30.95;;;;;;;8.37;68.31;98890.53;5113108;28;20065;-52
2021/11/05 03:29:17;;;;;;;30.20;24.10;;;;;;;8.41;68.17;98894.50;5113061;28;20030;-52
2021/11/05 03:31:43;;;;;;;38.60;15.15;;;;;;;8.54;68.20;98901.69;5113025;28;20028;-52
2021/11/05 03:34:09;;;;;;;44.28;16.40;;;;;;;8.55;67.87;98898.91;5113031;28;20091;-52
2021/11/05 03:36:35;;;;;;;23.25;14.82;;;;;;;8.52;67.52;98901.84;5112926;28;20025;-52
2021/11/05 03:39:02;;;;;;;42.65;18.27;;;;;;;8.53;68.02;98906.09;5112919;28;20065;-52
2021/11/05 03:41:28;;;;;;;70.43;18.95;;;;;;;8.54;67.92;98906.91;5112774;28;20016;-52
2021/11/05 03:43:54;;;;;;;55.03;14.63;;;;;;;8.58;67.32;98914.22;5112803;28;20032;-53
2021/11/05 03:46:20;;;;;;;25.27;13.95;;;;;;;8.58;67.97;98918.63;5112772;28;20011;-52
2021/11/05 03:48:45;;;;;;;108.38;21.67;;;;;;;8.64;67.70;98915.28;5112744;28;20400;-52
2021/11/05 03:51:11;;;;;;;124.28;14.55;;;;;;;8.79;67.44;98917.88;5112641;28;20538;-52
2021/11/05 03:53:38;;;;;;;31.42;13.38;;;;;;;8.75;67.04;98927.09;5111347;28;20528;-52
2021/11/05 03:56:04;;;;;;;19.67;14.05;;;;;;;8.68;67.46;98920.97;5112074;28;20049;-52
2021/11/05 03:58:30;;;;;;;56.42;15.35;;;;;;;8.67;67.48;98919.34;5112543;28;20033;-52
2021/11/05 04:00:55;;;;;;;255.93;21.90;;;;;;;8.61;67.86;98936.56;5112565;28;20452;-52
2021/11/05 04:03:22;;;;;;;33.75;22.77;;;;;;;8.57;67.93;98936.16;5112441;28;20561;-52
2021/11/05 04:05:48;;;;;;;44.97;31.20;;;;;;;8.51;68.43;98936.88;5112422;28;20027;-52
2021/11/05 04:08:14;;;;;;;56.42;20.83;;;;;;;8.52;68.39;98933.25;5110909;28;20035;-52
2021/11/05 04:10:40;;;;;;;58.15;28.17;;;;;;;8.50;68.22;98935.22;5112450;28;20038;-52
2021/11/05 04:13:05;;;;;;;78.82;39.00;;;;;;;8.48;68.88;98939.81;5112405;28;20023;-52
2021/11/05 04:15:31;;;;;;;68.20;57.55;;;;;;;8.51;68.85;98942.09;5112313;28;20026;-52
2021/11/05 04:17:57;;;;;;;92.10;50.88;;;;;;;8.89;68.80;98939.34;5112390;28;20019;-52
2021/11/05 04:20:23;;;;;;;32.80;21.48;;;;;;;9.09;67.77;98933.53;5112228;28;20501;-52
2021/11/05 04:22:48;;;;;;;59.05;25.42;;;;;;;9.03;67.46;98947.34;5112239;28;20032;-52
2021/11/05 04:25:14;;;;;;;293.52;29.92;;;;;;;8.92;67.43;98943.41;5112225;28;20031;-52
2021/11/05 04:27:40;;;;;;;292.60;77.53;;;;;;;8.76;68.50;98945.22;5112239;28;20099;-52
2021/11/05 04:30:09;;;;;;;185.02;142.57;;;;;;;8.68;68.37;98941.91;5112251;28;20110;-52
2021/11/05 04:32:35;;;;;;;189.10;120.03;;;;;;;8.54;68.53;98951.38;5112232;28;20389;-52
2021/11/05 04:35:01;;;;;;;205.05;84.72;;;;;;;8.58;69.36;98942.19;5112198;28;20084;-52
2021/11/05 04:37:27;;;;;;;107.18;62.53;;;;;;;8.62;68.70;98946.06;5112126;28;20122;-52
2021/11/05 04:39:52;;;;;;;66.93;34.40;;;;;;;8.59;69.21;98939.38;5112206;28;20492;-52
2021/11/05 04:42:18;;;;;;;102.90;49.17;;;;;;;8.64;68.80;98948.50;5111969;28;20020;-52
2021/11/05 04:44:44;;;;;;;191.85;80.30;;;;;;;8.66;68.72;98949.94;5112096;28;20026;-51
2021/11/05 04:47:10;;;;;;;207.57;90.43;;;;;;;8.79;68.37;98957.13;5112060;28;20482;-52
2021/11/05 04:49:36;;;;;;;150.25;42.42;;;;;;;8.79;68.16;98957.13;5112010;28;20408;-52
2021/11/05 04:52:02;;;;;;;189.30;104.78;;;;;;;8.56;68.50;98963.28;5111955;28;20027;-52
2021/11/05 04:54:28;;;;;;;198.23;98.28;;;;;;;8.49;68.73;98965.00;5111967;28;20052;-52
2021/11/05 04:56:54;;;;;;;141.07;32.92;;;;;;;8.50;68.82;98964.00;5111900;28;20560;-51
2021/11/05 04:59:19;;;;;;;399.48;181.25;;;;;;;8.51;69.12;98963.03;5111942;28;20020;-52
2021/11/05 05:01:46;;;;;;;250.43;73.40;;;;;;;8.51;68.45;98970.03;5111854;28;20020;-52
2021/11/05 05:04:12;;;;;;;344.02;51.10;;;;;;;8.35;68.21;98968.38;5112169;28;20400;-52
2021/11/05 05:06:38;;;;;;;148.48;28.98;;;;;;;8.36;68.50;98967.41;5111885;28;20051;-52
2021/11/05 05:09:04;;;;;;;186.40;52.30;;;;;;;8.31;68.93;98962.72;5132350;27;20577;-52
2021/11/05 05:11:30;;;;;;;141.20;29.00;;;;;;;8.34;68.77;98974.59;5136325;27;20041;-52
2021/11/05 05:13:56;;;;;;;69.85;27.13;;;;;;;8.26;68.26;98969.47;5136289;27;20114;-52
2021/11/05 05:16:22;;;;;;;50.67;19.90;;;;;;;8.20;68.50;98976.19;5136212;27;20455;-52
2021/11/05 05:18:48;;;;;;;66.72;38.72;;;;;;;8.22;69.15;98971.59;5136175;27;20512;-52
2021/11/05 05:21:14;;;;;;;88.15;29.20;;;;;;;8.29;67.88;98974.31;5136002;27;20031;-52
2021/11/05 05:23:40;;;;;;;57.60;32.83;;;;;;;8.31;68.34;98973.16;5136110;27;20514;-52
2021/11/05 05:26:07;;;;;;;54.47;33.65;;;;;;;8.19;68.25;98980.63;5136048;27;20023;-52
2021/11/05 05:28:33;;;;;;;163.20;30.33;;;;;;;7.95;68.84;98975.63;5135934;27;20023;-53
2021/11/05 05:31:07;;;;;;;150.20;35.78;;;;;;;7.64;69.56;98979.09;5135925;27;20073;-52
2021/11/05 05:33:36;;;;;;;212.50;26.80;;;;;;;7.53;70.61;98977.72;5135971;27;20510;-52
2021/11/05 05:36:07;;;;;;;124.25;24.92;;;;;;;7.57;70.36;98978.19;5135777;27;20459;-52
2021/11/05 05:38:33;;;;;;;203.73;28.48;;;;;;;7.66;69.92;98981.53;5135808;27;20027;-52
2021/11/05 05:40:59;;;;;;;149.57;26.17;;;;;;;7.69;70.39;98987.25;5135757;27;20030;-52
2021/11/05 05:43:25;;;;;;;98.30;24.63;;;;;;;7.88;70.07;98990.38;5135587;27;20019;-51
2021/11/05 05:45:51;;;;;;;151.07;24.70;;;;;;;7.92;69.00;98989.81;5135679;27;20049;-52
2021/11/05 05:48:17;;;;;;;108.75;24.67;;;;;;;7.89;69.19;98984.16;5135519;27;20019;-51
2021/11/05 05:50:43;;;;;;;76.28;25.33;;;;;;;7.78;69.50;98988.78;5135575;27;20566;-52
2021/11/05 05:53:09;;;;;;;47.58;25.48;;;;;;;7.70;69.22;98988.84;5135443;27;20567;-51
2021/11/05 05:55:35;;;;;;;145.80;27.80;;;;;;;7.67;69.75;98985.78;5135424;27;20031;-52
2021/11/05 05:58:01;;;;;;;120.40;27.50;;;;;;;7.66;69.90;98990.19;5135418;27;20023;-51
2021/11/05 06:00:29;;;;;;;152.30;29.90;;;;;;;7.58;69.95;98988.44;5135383;27;20491;-52
2021/11/05 06:02:55;;;;;;;221.55;26.50;;;;;;;7.54;70.22;98995.00;5116804;27;20365;-52
2021/11/05 06:05:21;;;;;;;437.27;43.58;;;;;;;7.58;70.84;99000.69;5135258;27;20089;-51
2021/11/05 06:07:46;;;;;;;95.63;26.88;;;;;;;7.92;71.49;98996.84;5135071;27;20043;-51
2021/11/05 06:10:13;;;;;;;217.65;29.13;;;;;;;8.16;69.92;98991.41;5135160;27;20023;-52
2021/11/05 06:12:38;;;;;;;144.32;29.23;;;;;;;8.13;69.89;98998.81;5135167;27;20402;-52
2021/11/05 06:15:05;;;;;;;240.02;31.58;;;;;;;8.16;70.40;98998.47;5135076;27;20011;-52
2021/11/05 06:17:31;;;;;;;191.57;24.77;;;;;;;8.25;70.28;99005.25;5135081;27;20098;-52
2021/11/05 06:19:57;;;;;;;295.25;27.42;;;;;;;8.27;69.35;99003.28;5134497;27;20050;-52
2021/11/05 06:22:23;;;;;;;239.07;22.70;;;;;;;8.11;69.71;99008.63;5134887;27;20396;-52
2021/11/05 06:24:48;;;;;;;162.00;22.52;;;;;;;7.95;69.66;99012.19;5135200;27;20011;-51
2021/11/05 06:27:14;;;;;;;116.25;19.70;;;;;;;8.02;69.89;99020.16;5134780;27;20023;-51
2021/11/05 06:29:40;;;;;;;90.25;17.70;;;;;;;7.91;69.19;99024.81;5116613;27;20488;-51
2021/11/05 06:32:06;;;;;;;101.88;16.92;;;;;;;7.85;69.73;99030.72;5134660;27;20031;-51
2021/11/05 06:34:32;;;;;;;92.97;17.33;;;;;;;7.84;69.99;99033.50;5134680;27;20106;-51
2021/11/05 06:36:58;;;;;;;44.85;16.92;;;;;;;7.82;69.70;99025.03;5134564;27;20102;-51
2021/11/05 06:39:24;;;;;;;60.20;17.63;;;;;;;7.95;70.12;99026.06;5134627;27;20064;-51
2021/11/05 06:41:50;;;;;;;39.72;18.10;;;;;;;7.99;69.10;99035.19;5134488;27;20468;-51
2021/11/05 06:44:16;;;;;;;50.67;18.15;;;;;;;8.06;68.92;99035.28;5134526;27;20488;-51
2021/11/05 06:46:41;;;;;;;58.55;18.92;;;;;;;8.05;68.85;99035.47;5134474;27;20023;-51
2021/11/05 06:49:07;;;;;;;64.00;17.75;;;;;;;8.04;69.64;99041.69;5134410;27;20467;-51
2021/11/05 06:51:33;;;;;;;75.90;17.92;;;;;;;7.98;69.44;99044.00;5134361;27;20067;-51
2021/11/05 06:53:59;;;;;;;37.20;18.27;;;;;;;7.95;69.34;99046.19;5134317;27;20054;-51
2021/11/05 06:56:25;;;;;;;78.22;21.90;;;;;;;7.93;69.10;99046.34;5134250;27;20073;-51
2021/11/05 06:58:55;;;;;;;54.72;15.88;;;;;;;8.30;69.47;99054.41;5134226;27;20015;-51
2021/11/05 07:01:22;;;;;;;49.92;18.60;;;;;;;8.37;68.93;99050.06;5134147;27;20492;-51
2021/11/05 07:03:47;;;;;;;31.38;16.83;;;;;;;8.28;69.07;99062.41;5134130;27;20068;-51
2021/11/05 07:06:13;;;;;;;37.85;20.77;;;;;;;8.24;69.43;99055.91;5134013;27;20485;-51
2021/11/05 07:08:39;;;;;;;29.05;18.02;;;;;;;8.32;69.62;99065.50;5133880;27;20542;-51
2021/11/05 07:11:04;;;;;;;43.45;19.65;;;;;;;8.51;69.58;99067.66;5133905;27;20019;-51
2021/11/05 07:13:30;;;;;;;25.90;16.58;;;;;;;8.78;68.78;99070.66;5133938;27;20027;-51
2021/11/05 07:15:56;;;;;;;89.40;28.90;;;;;;;8.89;67.75;99080.66;5133893;27;20052;-51
2021/11/05 07:18:22;;;;;;;63.95;25.00;;;;;;;8.79;67.97;99080.97;5133798;27;20105;-51
2021/11/05 07:20:48;;;;;;;56.95;22.08;;;;;;;8.89;68.49;99083.28;5133782;27;20098;-51
2021/11/05 07:23:14;;;;;;;36.92;18.58;;;;;;;8.90;67.83;99087.56;5133714;27;20023;-50
2021/11/05 07:25:41;;;;;;;38.75;15.20;;;;;;;8.86;67.59;99095.94;5133642;27;20060;-51
2021/11/05 07:28:07;;;;;;;94.10;19.02;;;;;;;8.85;67.65;99091.69;5133554;27;20023;-50
2021/11/05 07:30:33;;;;;;;30.27;16.77;;;;;;;8.91;68.28;99104.88;5133346;27;20522;-51
2021/11/05 07:32:59;;;;;;;51.35;17.17;;;;;;;9.04;67.13;99103.47;5133069;27;20019;-50
2021/11/05 07:35:25;;;;;;;43.63;19.98;;;;;;;8.98;67.12;99104.97;5115035;27;20598;-50
2021/11/05 07:37:51;;;;;;;23.25;16.38;;;;;;;8.98;67.20;99105.78;5115028;27;20038;-51
2021/11/05 07:40:18;;;;;;;44.67;17.00;;;;;;;9.04;67.23;99103.47;5133423;27;20071;-50
2021/11/05 07:42:45;;;;;;;29.15;17.15;;;;;;;9.04;67.55;99109.50;5114810;27;20420;-51
2021/11/05 07:45:14;;;;;;;36.75;17.17;;;;;;;9.14;66.82;99107.41;5133292;27;20015;-51
2021/11/05 07:47:41;;;;;;;50.30;16.20;;;;;;;9.25;66.99;99103.53;5133319;27;20072;-50
2021/11/05 07:50:08;;;;;;;27.73;15.27;;;;;;;9.30;66.60;99118.72;5133251;27;20064;-51
2021/11/05 07:52:34;;;;;;;22.45;15.50;;;;;;;9.31;66.93;99129.00;5114803;27;20019;-51
2021/11/05 07:55:00;;;;;;;37.15;14.40;;;;;;;9.26;66.35;99127.94;5133368;27;20023;-50
2021/11/05 07:57:26;;;;;;;29.85;17.60;;;;;;;9.20;66.53;99127.66;5114716;27;20023;-51
2021/11/05 07:59:52;;;;;;;20.35;16.25;;;;;;;9.22;66.21;99132.72;5133122;27;20555;-51
2021/11/05 08:02:18;;;;;;;112.50;85.70;;;;;;;9.37;66.14;99137.94;5132977;27;20062;-51
2021/11/05 08:04:44;;;;;;;33.22;21.30;;;;;;;9.34;65.41;99141.75;5114580;27;20098;-50
2021/11/05 08:07:10;;;;;;;50.83;41.08;;;;;;;9.33;65.65;99150.56;5132747;27;20072;-51
2021/11/05 08:09:36;;;;;;;28.30;16.58;;;;;;;9.29;64.95;99154.56;5132962;27;20035;-50
2021/11/05 08:12:02;;;;;;;26.80;15.68;;;;;;;9.25;65.57;99155.91;5114439;27;20520;-51
2021/11/05 08:14:27;;;;;;;22.95;15.10;;;;;;;9.22;65.22;99158.09;5132956;27;20027;-51
2021/11/05 08:16:53;;;;;;;17.88;12.02;;;;;;;9.31;65.31;99160.41;5132831;27;20016;-51
2021/11/05 08:19:19;;;;;;;24.30;15.07;;;;;;;9.51;65.19;99162.50;5114370;27;20072;-51
2021/11/05 08:21:44;;;;;;;19.90;13.98;;;;;;;9.65;64.31;99155.63;5133027;27;20019;-50
2021/11/05 08:24:10;;;;;;;20.35;14.90;;;;;;;9.64;64.12;99170.56;5132817;27;20055;-51
2021/11/05 08:26:37;;;;;;;15.70;11.68;;;;;;;9.55;63.93;99169.81;5132749;27;20079;-51
2021/11/05 08:29:05;;;;;;;17.73;12.40;;;;;;;9.60;64.37;99172.72;5132772;28;20437;-51
2021/11/05 08:31:32;;;;;;;23.88;13.45;;;;;;;9.87;63.95;99170.41;5132736;28;20034;-51
2021/11/05 08:33:58;;;;;;;26.40;13.45;;;;;;;9.95;63.03;99175.56;5132586;28;20016;-50
2021/11/05 08:36:26;;;;;;;18.92;11.80;;;;;;;9.94;63.31;99180.97;5132726;28;20512;-50
2021/11/05 08:38:53;;;;;;;17.30;12.43;;;;;;;10.05;63.11;99180.50;5114219;28;20034;-51
2021/11/05 08:41:19;;;;;;;20.38;12.75;;;;;;;10.27;63.16;99180.56;5132611;28;20042;-51
2021/11/05 08:43:51;;;;;;;20.50;14.63;;;;;;;10.47;62.44;99186.84;5135669;27;20488;-51
2021/11/05 08:46:17;;;;;;;19.42;13.50;;;;;;;10.33;62.00;99188.50;5136871;27;20416;-51
2021/11/05 08:48:46;;;;;;;27.50;13.68;;;;;;;10.24;62.04;99194.03;5136587;27;20411;-51
2021/11/05 08:51:13;;;;;;;25.73;13.15;;;;;;;10.35;62.20;99191.75;5118326;27;20027;-51
2021/11/05 08:53:39;;;;;;;19.70;11.48;;;;;;;10.52;61.77;99196.75;5136717;27;20479;-51
2021/11/05 08:56:05;;;;;;;20.50;12.57;;;;;;;10.58;61.34;99202.09;5118114;27;20079;-51
2021/11/05 08:58:32;;;;;;;16.85;11.50;;;;;;;10.58;61.60;99201.25;5118122;27;20068;-51
2021/11/05 09:00:58;;;;;;;16.80;11.68;;;;;;;10.59;61.55;99203.72;5136526;27;20511;-51
2021/11/05 09:03:24;;;;;;;18.75;13.10;;;;;;;10.57;61.30;99202.28;5136477;27;20096;-51
2021/11/05 09:05:50;;;;;;;18.63;12.68;;;;;;;10.46;61.64;99197.50;5117892;27;20404;-51
2021/11/05 09:08:15;;;;;;;21.88;13.95;;;;;;;10.45;61.43;99198.53;5136188;27;20505;-51
2021/11/05 09:10:41;;;;;;;23.45;16.23;;;;;;;10.36;62.22;99203.91;5136344;27;20449;-52
2021/11/05 09:13:08;;;;;;;33.70;15.98;;;;;;;10.52;61.89;99212.50;5136303;27;20035;-51
2021/11/05 09:15:34;;;;;;;37.78;18.15;;;;;;;10.64;61.70;99205.75;5136265;27;20042;-51
2021/11/05 09:18:04;;;;;;;23.30;13.15;;;;;;;10.92;61.31;99216.31;5136219;27;20023;-51
2021/11/05 09:20:30;;;;;;;18.52;11.05;;;;;;;11.16;60.47;99216.91;5136149;27;20016;-51
2021/11/05 09:22:56;;;;;;;20.35;12.50;;;;;;;11.08;60.19;99209.97;5117561;27;20030;-51
2021/11/05 09:25:25;;;;;;;18.52;12.52;;;;;;;11.17;60.43;99216.72;5117574;27;20107;-51
2021/11/05 09:27:51;;;;;;;20.60;11.80;;;;;;;11.29;59.96;99219.66;5136010;27;20023;-51
2021/11/05 09:30:19;;;;;;;21.23;12.93;;;;;;;11.38;59.92;99222.94;5117553;27;20027;-51
2021/11/05 09:32:46;;;;;;;21.52;11.98;;;;;;;11.38;59.43;99223.72;5135970;27;20549;-51
2021/11/05 09:35:12;;;;;;;21.15;12.07;;;;;;;11.60;59.50;99226.31;5117533;27;20426;-52
2021/11/05 09:37:39;;;;;;;37.45;11.48;;;;;;;11.92;58.96;99227.50;5117365;27;20110;-51
2021/11/05 09:40:07;;;;;;;12.25;9.85;;;;;;;11.99;58.35;99230.16;5117343;27;20106;-52
2021/11/05 09:42:34;;;;;;;44.92;14.05;;;;;;;12.07;58.48;99226.56;5135730;27;20132;-51
2021/11/05 09:45:00;;;;;;;41.08;16.95;;;;;;;12.37;57.52;99229.69;5135750;27;20137;-52
2021/11/05 09:47:28;;;;;;;37.40;18.60;;;;;;;12.45;57.75;99233.97;5135708;27;20106;-51
2021/11/05 09:49:54;;;;;;;23.70;13.93;;;;;;;12.62;56.59;99239.69;5135665;27;20034;-52
2021/11/05 09:52:20;;;;;;;17.67;12.00;;;;;;;12.59;56.78;99241.69;5135908;27;20508;-51
2021/11/05 09:54:49;;;;;;;16.65;13.48;;;;;;;12.55;56.56;99247.56;5134679;27;20049;-52
2021/11/05 09:57:16;;;;;;;16.48;11.25;;;;;;;12.44;56.84;99248.97;5135501;27;20023;-52
2021/11/05 09:59:43;;;;;;;33.58;19.38;;;;;;;12.49;57.29;99243.09;5135477;27;20437;-52
2021/11/05 10:02:17;;;;;;;28.52;15.32;;;;;;;12.84;56.40;99246.41;5135384;27;20019;-52
2021/11/05 10:04:44;;;;;;;26.57;16.00;;;;;;;12.92;56.41;99246.22;5135515;27;20034;-52
2021/11/05 10:07:11;;;;;;;35.35;18.92;;;;;;;13.23;56.18;99247.41;5135062;27;20100;-52
2021/11/05 10:09:58;;;;;;;36.17;20.88;;;;;;;13.48;55.74;99238.91;5135296;27;20023;-52
2021/11/05 10:12:29;;;;;;;34.05;17.80;;;;;;;13.67;55.79;99243.34;5135278;27;20510;-52
2021/11/05 10:15:02;;;;;;;20.88;13.70;;;;;;;14.70;53.30;99237.22;5116633;27;20110;-52
2021/11/05 10:17:31;;;;;;;18.00;11.82;;;;;;;15.54;52.39;99234.31;5135150;27;20019;-52
2021/11/05 10:20:00;;;;;;;15.73;12.63;;;;;;;17.33;49.31;99225.78;5134986;27;20025;-52
2021/11/05 10:22:32;;;;;;;30.92;21.73;;;;;;;18.67;46.26;99228.44;5134957;27;20015;-50
2021/11/05 10:25:18;;;;;;;37.97;30.70;;;;;;;18.09;45.43;99228.47;5134955;27;20027;-50
2021/11/05 10:27:44;;;;;;;69.28;62.38;;;;;;;17.22;46.38;99231.09;5134680;27;20070;-51
2021/11/05 10:30:10;;;;;;;25.27;22.85;;;;;;;17.46;45.92;99237.22;5134872;27;20504;-50
2021/11/05 10:32:40;;;;;;;33.38;29.95;;;;;;;17.50;44.73;99235.72;5134722;27;20027;-51
2021/11/05 10:35:15;;;;;;;74.18;65.90;;;;;;;17.53;45.36;99228.09;5134777;27;20438;-51
2021/11/05 10:37:43;;;;;;;40.15;36.25;;;;;;;17.28;45.05;99238.94;5134721;27;20023;-51
2021/11/05 10:40:11;;;;;;;42.83;38.47;;;;;;;16.77;46.04;99235.03;5134637;27;20056;-49
2021/11/05 10:42:40;;;;;;;36.30;32.42;;;;;;;16.96;46.08;99233.13;5134482;27;20068;-51
2021/11/05 10:45:13;;;;;;;47.63;42.80;;;;;;;17.21;45.59;99227.66;5134564;27;20030;-51
2021/11/05 10:48:00;;;;;;;18.00;16.20;;;;;;;17.85;45.55;99232.22;5134507;27;20365;-51
2021/11/05 10:50:34;;;;;;;23.40;21.15;;;;;;;18.04;43.77;99228.38;5115878;27;20409;-51
2021/11/05 10:53:02;;;;;;;44.70;40.63;;;;;;;17.56;43.32;99227.63;5134410;27;20022;-51
2021/11/05 10:55:41;;;;;;;16.42;13.90;;;;;;;17.11;44.20;99235.38;5134294;27;20396;-51
2021/11/05 10:58:07;;;;;;;11.27;8.20;;;;;;;16.57;45.27;99240.63;5134270;27;20601;-51
2021/11/05 11:00:34;;;;;;;8.63;5.03;;;;;;;16.53;45.36;99236.81;5134160;27;20031;-50
2021/11/05 11:03:30;;;;;;;11.75;5.10;;;;;;;16.70;46.22;99234.31;5134137;27;20038;-50
2021/11/05 11:05:58;;;;;;;;;;;;;;;18.48;46.24;99218.03;5134591;27;20054;-51
2021/11/05 11:08:26;;;;;;;11.45;5.35;;;;;;;19.88;41.81;99219.09;5133811;27;20463;-50
2021/11/05 11:10:55;;;;;;;9.75;4.88;;;;;;;20.58;39.56;99214.75;5133939;27;20026;-50
2021/11/05 11:13:28;;;;;;;7.97;4.25;;;;;;;21.04;38.79;99209.84;5133953;27;20053;-51
2021/11/05 11:15:55;;;;;;;6.43;4.10;;;;;;;21.59;37.03;99204.31;5133886;27;20450;-50
2021/11/05 11:18:21;;;;;;;4.95;3.90;;;;;;;21.66;36.11;99208.38;5133862;27;20011;-50
2021/11/05 11:20:48;;;;;;;6.78;4.35;;;;;;;21.42;36.39;99209.81;5133744;27;20035;-51